sensor_id;sensor_type;location;lat;lon;timestamp;P1;durP1;ratioP1;P2;durP2;ratioP2
51495;SDS011;37572;52.094;4.870;2023-05-07T00:01:38;42.72;;;24.55;;
51495;SDS011;37572;52.094;4.870;2023-05-07T00:04:04;40.83;;;23.03;;
51495;SDS011;37572;52.094;4.870;2023-05-07T00:06:29;40.05;;;23.45;;
51495;SDS011;37572;52.094;4.870;2023-05-07T00:08:56;43.88;;;25.88;;
51495;SDS011;37572;52.094;4.870;2023-05-07T00:11:21;37.00;;;22.48;;
51495;SDS011;37572;52.094;4.870;2023-05-07T00:13:47;50.88;;;27.77;;
51495;SDS011;37572;52.094;4.870;2023-05-07T00:16:13;50.55;;;27.55;;
51495;SDS011;37572;52.094;4.870;2023-05-07T00:18:38;49.75;;;28.05;;
51495;SDS011;37572;52.094;4.870;2023-05-07T00:21:04;51.20;;;28.23;;
51495;SDS011;37572;52.094;4.870;2023-05-07T00:23:29;49.33;;;27.73;;
51495;SDS011;37572;52.094;4.870;2023-05-07T00:25:55;47.50;;;27.27;;
51495;SDS011;37572;52.094;4.870;2023-05-07T00:28:21;54.20;;;29.13;;
51495;SDS011;37572;52.094;4.870;2023-05-07T00:30:46;44.15;;;25.42;;
51495;SDS011;37572;52.094;4.870;2023-05-07T00:33:11;50.92;;;29.30;;
51495;SDS011;37572;52.094;4.870;2023-05-07T00:35:37;50.13;;;29.67;;
51495;SDS011;37572;52.094;4.870;2023-05-07T00:38:02;52.90;;;29.17;;
51495;SDS011;37572;52.094;4.870;2023-05-07T00:40:27;51.30;;;29.27;;
51495;SDS011;37572;52.094;4.870;2023-05-07T00:42:52;50.13;;;28.42;;
51495;SDS011;37572;52.094;4.870;2023-05-07T00:45:23;50.00;;;28.77;;
51495;SDS011;37572;52.094;4.870;2023-05-07T00:47:54;58.80;;;31.67;;
51495;SDS011;37572;52.094;4.870;2023-05-07T00:50:20;55.10;;;30.77;;
51495;SDS011;37572;52.094;4.870;2023-05-07T00:52:45;53.40;;;30.55;;
51495;SDS011;37572;52.094;4.870;2023-05-07T00:55:11;54.92;;;30.70;;
51495;SDS011;37572;52.094;4.870;2023-05-07T00:57:39;55.30;;;32.30;;
51495;SDS011;37572;52.094;4.870;2023-05-07T01:00:06;53.97;;;31.38;;
51495;SDS011;37572;52.094;4.870;2023-05-07T01:02:37;57.00;;;33.15;;
51495;SDS011;37572;52.094;4.870;2023-05-07T01:05:04;53.25;;;33.38;;
51495;SDS011;37572;52.094;4.870;2023-05-07T01:07:32;54.15;;;32.13;;
51495;SDS011;37572;52.094;4.870;2023-05-07T01:09:59;56.35;;;32.88;;
51495;SDS011;37572;52.094;4.870;2023-05-07T01:12:26;52.25;;;28.50;;
51495;SDS011;37572;52.094;4.870;2023-05-07T01:14:52;54.15;;;30.67;;
51495;SDS011;37572;52.094;4.870;2023-05-07T01:17:18;47.92;;;29.58;;
51495;SDS011;37572;52.094;4.870;2023-05-07T01:19:43;49.05;;;31.35;;
51495;SDS011;37572;52.094;4.870;2023-05-07T01:22:09;42.65;;;26.05;;
51495;SDS011;37572;52.094;4.870;2023-05-07T01:24:36;46.70;;;28.38;;
51495;SDS011;37572;52.094;4.870;2023-05-07T01:27:02;44.67;;;27.05;;
51495;SDS011;37572;52.094;4.870;2023-05-07T01:29:28;47.15;;;28.15;;
51495;SDS011;37572;52.094;4.870;2023-05-07T01:31:53;42.95;;;26.98;;
51495;SDS011;37572;52.094;4.870;2023-05-07T01:34:21;42.50;;;25.88;;
51495;SDS011;37572;52.094;4.870;2023-05-07T01:36:48;42.80;;;27.38;;
51495;SDS011;37572;52.094;4.870;2023-05-07T01:39:14;41.13;;;27.33;;
51495;SDS011;37572;52.094;4.870;2023-05-07T01:41:40;38.42;;;24.40;;
51495;SDS011;37572;52.094;4.870;2023-05-07T01:44:07;43.20;;;27.70;;
51495;SDS011;37572;52.094;4.870;2023-05-07T01:46:34;39.78;;;26.02;;
51495;SDS011;37572;52.094;4.870;2023-05-07T01:49:00;41.88;;;26.20;;
51495;SDS011;37572;52.094;4.870;2023-05-07T01:51:26;39.90;;;25.65;;
51495;SDS011;37572;52.094;4.870;2023-05-07T01:53:52;42.38;;;26.05;;
51495;SDS011;37572;52.094;4.870;2023-05-07T01:56:18;38.10;;;25.40;;
51495;SDS011;37572;52.094;4.870;2023-05-07T01:58:45;39.70;;;28.00;;
51495;SDS011;37572;52.094;4.870;2023-05-07T02:01:11;35.90;;;23.00;;
51495;SDS011;37572;52.094;4.870;2023-05-07T02:03:37;35.22;;;23.92;;
51495;SDS011;37572;52.094;4.870;2023-05-07T02:06:02;36.13;;;25.23;;
51495;SDS011;37572;52.094;4.870;2023-05-07T02:08:28;38.83;;;24.50;;
51495;SDS011;37572;52.094;4.870;2023-05-07T02:10:53;38.53;;;25.85;;
51495;SDS011;37572;52.094;4.870;2023-05-07T02:13:19;36.30;;;23.33;;
51495;SDS011;37572;52.094;4.870;2023-05-07T02:15:45;36.20;;;23.85;;
51495;SDS011;37572;52.094;4.870;2023-05-07T02:18:14;32.40;;;22.90;;
51495;SDS011;37572;52.094;4.870;2023-05-07T02:20:41;32.70;;;22.45;;
51495;SDS011;37572;52.094;4.870;2023-05-07T02:23:06;34.57;;;22.93;;
51495;SDS011;37572;52.094;4.870;2023-05-07T02:25:31;34.93;;;24.53;;
51495;SDS011;37572;52.094;4.870;2023-05-07T02:27:57;30.83;;;21.13;;
51495;SDS011;37572;52.094;4.870;2023-05-07T02:30:22;34.00;;;21.70;;
51495;SDS011;37572;52.094;4.870;2023-05-07T02:32:47;31.90;;;23.23;;
51495;SDS011;37572;52.094;4.870;2023-05-07T02:35:13;31.38;;;21.42;;
51495;SDS011;37572;52.094;4.870;2023-05-07T02:37:38;29.93;;;21.00;;
51495;SDS011;37572;52.094;4.870;2023-05-07T02:40:04;28.90;;;20.63;;
51495;SDS011;37572;52.094;4.870;2023-05-07T02:42:30;30.23;;;21.23;;
51495;SDS011;37572;52.094;4.870;2023-05-07T02:44:55;33.10;;;21.80;;
51495;SDS011;37572;52.094;4.870;2023-05-07T02:47:20;34.50;;;21.27;;
51495;SDS011;37572;52.094;4.870;2023-05-07T02:49:46;31.90;;;23.50;;
51495;SDS011;37572;52.094;4.870;2023-05-07T02:52:11;30.50;;;22.43;;
51495;SDS011;37572;52.094;4.870;2023-05-07T02:54:36;27.15;;;18.48;;
51495;SDS011;37572;52.094;4.870;2023-05-07T02:57:02;28.60;;;19.87;;
51495;SDS011;37572;52.094;4.870;2023-05-07T02:59:28;27.95;;;21.02;;
51495;SDS011;37572;52.094;4.870;2023-05-07T03:01:53;28.20;;;20.38;;
51495;SDS011;37572;52.094;4.870;2023-05-07T03:04:18;28.73;;;20.00;;
51495;SDS011;37572;52.094;4.870;2023-05-07T03:06:44;31.02;;;20.25;;
51495;SDS011;37572;52.094;4.870;2023-05-07T03:09:09;24.10;;;17.02;;
51495;SDS011;37572;52.094;4.870;2023-05-07T03:11:35;27.52;;;18.67;;
51495;SDS011;37572;52.094;4.870;2023-05-07T03:14:00;27.02;;;18.85;;
51495;SDS011;37572;52.094;4.870;2023-05-07T03:16:26;29.45;;;18.83;;
51495;SDS011;37572;52.094;4.870;2023-05-07T03:18:51;29.33;;;18.90;;
51495;SDS011;37572;52.094;4.870;2023-05-07T03:21:17;25.67;;;18.17;;
51495;SDS011;37572;52.094;4.870;2023-05-07T03:23:42;25.35;;;17.77;;
51495;SDS011;37572;52.094;4.870;2023-05-07T03:26:07;27.77;;;18.57;;
51495;SDS011;37572;52.094;4.870;2023-05-07T03:28:33;23.83;;;17.30;;
51495;SDS011;37572;52.094;4.870;2023-05-07T03:30:58;22.83;;;18.07;;
51495;SDS011;37572;52.094;4.870;2023-05-07T03:33:23;23.35;;;15.02;;
51495;SDS011;37572;52.094;4.870;2023-05-07T03:35:49;25.63;;;17.83;;
51495;SDS011;37572;52.094;4.870;2023-05-07T03:38:14;25.90;;;17.48;;
51495;SDS011;37572;52.094;4.870;2023-05-07T03:40:40;22.00;;;15.70;;
51495;SDS011;37572;52.094;4.870;2023-05-07T03:43:05;22.55;;;16.77;;
51495;SDS011;37572;52.094;4.870;2023-05-07T03:45:30;24.02;;;17.30;;
51495;SDS011;37572;52.094;4.870;2023-05-07T03:47:56;23.87;;;16.83;;
51495;SDS011;37572;52.094;4.870;2023-05-07T03:50:21;25.23;;;17.53;;
51495;SDS011;37572;52.094;4.870;2023-05-07T03:52:46;22.67;;;17.52;;
51495;SDS011;37572;52.094;4.870;2023-05-07T03:55:12;23.03;;;16.93;;
51495;SDS011;37572;52.094;4.870;2023-05-07T03:57:37;27.47;;;19.13;;
51495;SDS011;37572;52.094;4.870;2023-05-07T04:00:02;24.00;;;17.50;;
51495;SDS011;37572;52.094;4.870;2023-05-07T04:02:29;26.58;;;18.95;;
51495;SDS011;37572;52.094;4.870;2023-05-07T04:04:55;27.38;;;18.55;;
51495;SDS011;37572;52.094;4.870;2023-05-07T04:07:20;24.43;;;17.03;;
51495;SDS011;37572;52.094;4.870;2023-05-07T04:09:45;28.33;;;19.10;;
51495;SDS011;37572;52.094;4.870;2023-05-07T04:12:11;25.65;;;19.15;;
51495;SDS011;37572;52.094;4.870;2023-05-07T04:14:36;26.33;;;18.60;;
51495;SDS011;37572;52.094;4.870;2023-05-07T04:17:01;31.73;;;19.43;;
51495;SDS011;37572;52.094;4.870;2023-05-07T04:19:27;26.40;;;18.10;;
51495;SDS011;37572;52.094;4.870;2023-05-07T04:21:53;26.73;;;19.33;;
51495;SDS011;37572;52.094;4.870;2023-05-07T04:24:18;28.83;;;19.00;;
51495;SDS011;37572;52.094;4.870;2023-05-07T04:26:43;26.27;;;18.52;;
51495;SDS011;37572;52.094;4.870;2023-05-07T04:29:09;31.93;;;20.30;;
51495;SDS011;37572;52.094;4.870;2023-05-07T04:31:34;27.97;;;20.20;;
51495;SDS011;37572;52.094;4.870;2023-05-07T04:33:59;27.70;;;19.88;;
51495;SDS011;37572;52.094;4.870;2023-05-07T04:36:25;30.50;;;19.17;;
51495;SDS011;37572;52.094;4.870;2023-05-07T04:38:54;28.25;;;19.55;;
51495;SDS011;37572;52.094;4.870;2023-05-07T04:41:19;29.45;;;20.60;;
51495;SDS011;37572;52.094;4.870;2023-05-07T04:43:45;26.02;;;18.50;;
51495;SDS011;37572;52.094;4.870;2023-05-07T04:46:11;30.90;;;22.27;;
51495;SDS011;37572;52.094;4.870;2023-05-07T04:48:36;27.20;;;19.45;;
51495;SDS011;37572;52.094;4.870;2023-05-07T04:51:02;28.10;;;19.52;;
51495;SDS011;37572;52.094;4.870;2023-05-07T04:53:29;28.27;;;20.23;;
51495;SDS011;37572;52.094;4.870;2023-05-07T04:55:55;27.00;;;19.45;;
51495;SDS011;37572;52.094;4.870;2023-05-07T04:58:21;29.95;;;21.83;;
51495;SDS011;37572;52.094;4.870;2023-05-07T05:00:47;31.58;;;21.02;;
51495;SDS011;37572;52.094;4.870;2023-05-07T05:03:12;27.60;;;18.93;;
51495;SDS011;37572;52.094;4.870;2023-05-07T05:05:37;30.60;;;21.60;;
51495;SDS011;37572;52.094;4.870;2023-05-07T05:08:03;30.42;;;19.95;;
51495;SDS011;37572;52.094;4.870;2023-05-07T05:10:28;28.58;;;20.08;;
51495;SDS011;37572;52.094;4.870;2023-05-07T05:12:53;33.77;;;22.07;;
51495;SDS011;37572;52.094;4.870;2023-05-07T05:15:19;31.00;;;21.10;;
51495;SDS011;37572;52.094;4.870;2023-05-07T05:17:44;29.95;;;22.45;;
51495;SDS011;37572;52.094;4.870;2023-05-07T05:20:10;35.00;;;23.52;;
51495;SDS011;37572;52.094;4.870;2023-05-07T05:22:36;33.33;;;21.83;;
51495;SDS011;37572;52.094;4.870;2023-05-07T05:25:02;34.28;;;22.08;;
51495;SDS011;37572;52.094;4.870;2023-05-07T05:27:27;35.53;;;23.20;;
51495;SDS011;37572;52.094;4.870;2023-05-07T05:29:53;35.03;;;23.27;;
51495;SDS011;37572;52.094;4.870;2023-05-07T05:32:19;34.15;;;23.67;;
51495;SDS011;37572;52.094;4.870;2023-05-07T05:34:44;34.80;;;23.15;;
51495;SDS011;37572;52.094;4.870;2023-05-07T05:37:09;35.50;;;24.13;;
51495;SDS011;37572;52.094;4.870;2023-05-07T05:39:35;32.58;;;23.73;;
51495;SDS011;37572;52.094;4.870;2023-05-07T05:42:01;34.63;;;23.85;;
51495;SDS011;37572;52.094;4.870;2023-05-07T05:44:26;36.72;;;24.52;;
51495;SDS011;37572;52.094;4.870;2023-05-07T05:46:51;35.60;;;22.43;;
51495;SDS011;37572;52.094;4.870;2023-05-07T05:49:19;35.80;;;24.70;;
51495;SDS011;37572;52.094;4.870;2023-05-07T05:51:44;36.10;;;23.80;;
51495;SDS011;37572;52.094;4.870;2023-05-07T05:54:10;38.38;;;25.20;;
51495;SDS011;37572;52.094;4.870;2023-05-07T05:56:36;35.23;;;24.13;;
51495;SDS011;37572;52.094;4.870;2023-05-07T05:59:01;34.38;;;24.58;;
51495;SDS011;37572;52.094;4.870;2023-05-07T06:01:27;38.33;;;25.70;;
51495;SDS011;37572;52.094;4.870;2023-05-07T06:03:52;38.22;;;25.30;;
51495;SDS011;37572;52.094;4.870;2023-05-07T06:06:17;40.67;;;25.57;;
51495;SDS011;37572;52.094;4.870;2023-05-07T06:08:42;38.10;;;26.10;;
51495;SDS011;37572;52.094;4.870;2023-05-07T06:11:08;33.83;;;22.73;;
51495;SDS011;37572;52.094;4.870;2023-05-07T06:13:33;35.10;;;24.75;;
51495;SDS011;37572;52.094;4.870;2023-05-07T06:15:59;30.73;;;21.83;;
51495;SDS011;37572;52.094;4.870;2023-05-07T06:18:24;37.10;;;25.08;;
51495;SDS011;37572;52.094;4.870;2023-05-07T06:20:50;37.42;;;22.80;;
51495;SDS011;37572;52.094;4.870;2023-05-07T06:23:16;37.05;;;24.05;;
51495;SDS011;37572;52.094;4.870;2023-05-07T06:25:42;34.95;;;25.75;;
51495;SDS011;37572;52.094;4.870;2023-05-07T06:28:07;35.33;;;23.87;;
51495;SDS011;37572;52.094;4.870;2023-05-07T06:30:34;37.42;;;25.25;;
51495;SDS011;37572;52.094;4.870;2023-05-07T06:32:59;36.17;;;24.97;;
51495;SDS011;37572;52.094;4.870;2023-05-07T06:35:24;39.83;;;25.77;;
51495;SDS011;37572;52.094;4.870;2023-05-07T06:37:50;36.33;;;23.87;;
51495;SDS011;37572;52.094;4.870;2023-05-07T06:40:15;37.17;;;25.97;;
51495;SDS011;37572;52.094;4.870;2023-05-07T06:42:41;37.38;;;25.92;;
51495;SDS011;37572;52.094;4.870;2023-05-07T06:45:08;36.90;;;24.43;;
51495;SDS011;37572;52.094;4.870;2023-05-07T06:47:33;37.97;;;28.10;;
51495;SDS011;37572;52.094;4.870;2023-05-07T06:49:58;39.03;;;25.70;;
51495;SDS011;37572;52.094;4.870;2023-05-07T06:52:24;34.53;;;24.43;;
51495;SDS011;37572;52.094;4.870;2023-05-07T06:54:49;35.90;;;24.77;;
51495;SDS011;37572;52.094;4.870;2023-05-07T06:57:15;32.47;;;23.17;;
51495;SDS011;37572;52.094;4.870;2023-05-07T06:59:40;31.87;;;22.77;;
51495;SDS011;37572;52.094;4.870;2023-05-07T07:02:05;36.03;;;23.57;;
51495;SDS011;37572;52.094;4.870;2023-05-07T07:04:31;32.92;;;22.85;;
51495;SDS011;37572;52.094;4.870;2023-05-07T07:06:56;31.70;;;23.05;;
51495;SDS011;37572;52.094;4.870;2023-05-07T07:09:21;31.00;;;22.27;;
51495;SDS011;37572;52.094;4.870;2023-05-07T07:11:47;32.55;;;22.38;;
51495;SDS011;37572;52.094;4.870;2023-05-07T07:14:12;34.00;;;23.10;;
51495;SDS011;37572;52.094;4.870;2023-05-07T07:16:38;33.83;;;23.40;;
51495;SDS011;37572;52.094;4.870;2023-05-07T07:19:03;32.40;;;23.83;;
51495;SDS011;37572;52.094;4.870;2023-05-07T07:21:28;33.53;;;23.60;;
51495;SDS011;37572;52.094;4.870;2023-05-07T07:23:53;32.40;;;22.87;;
51495;SDS011;37572;52.094;4.870;2023-05-07T07:26:19;33.95;;;23.02;;
51495;SDS011;37572;52.094;4.870;2023-05-07T07:28:44;33.07;;;23.70;;
51495;SDS011;37572;52.094;4.870;2023-05-07T07:31:10;37.88;;;24.67;;
51495;SDS011;37572;52.094;4.870;2023-05-07T07:33:36;33.95;;;24.67;;
51495;SDS011;37572;52.094;4.870;2023-05-07T07:36:01;35.05;;;25.58;;
51495;SDS011;37572;52.094;4.870;2023-05-07T07:38:26;36.35;;;23.80;;
51495;SDS011;37572;52.094;4.870;2023-05-07T07:40:53;36.03;;;24.92;;
51495;SDS011;37572;52.094;4.870;2023-05-07T07:43:18;37.83;;;26.98;;
51495;SDS011;37572;52.094;4.870;2023-05-07T07:45:43;39.70;;;26.15;;
51495;SDS011;37572;52.094;4.870;2023-05-07T07:48:09;37.83;;;26.37;;
51495;SDS011;37572;52.094;4.870;2023-05-07T07:50:34;36.00;;;24.85;;
51495;SDS011;37572;52.094;4.870;2023-05-07T07:52:59;36.58;;;26.10;;
51495;SDS011;37572;52.094;4.870;2023-05-07T07:55:25;34.13;;;23.85;;
51495;SDS011;37572;52.094;4.870;2023-05-07T07:57:51;34.22;;;25.42;;
51495;SDS011;37572;52.094;4.870;2023-05-07T08:00:16;33.67;;;23.40;;
51495;SDS011;37572;52.094;4.870;2023-05-07T08:02:42;32.40;;;23.20;;
51495;SDS011;37572;52.094;4.870;2023-05-07T08:05:07;31.80;;;22.73;;
51495;SDS011;37572;52.094;4.870;2023-05-07T08:07:33;30.88;;;21.65;;
51495;SDS011;37572;52.094;4.870;2023-05-07T08:09:58;31.73;;;23.70;;
51495;SDS011;37572;52.094;4.870;2023-05-07T08:12:23;34.95;;;23.88;;
51495;SDS011;37572;52.094;4.870;2023-05-07T08:14:49;32.72;;;23.02;;
51495;SDS011;37572;52.094;4.870;2023-05-07T08:17:14;31.38;;;24.35;;
51495;SDS011;37572;52.094;4.870;2023-05-07T08:19:40;29.65;;;21.63;;
51495;SDS011;37572;52.094;4.870;2023-05-07T08:22:06;28.65;;;21.23;;
51495;SDS011;37572;52.094;4.870;2023-05-07T08:24:32;28.38;;;20.92;;
51495;SDS011;37572;52.094;4.870;2023-05-07T08:26:57;28.63;;;21.13;;
51495;SDS011;37572;52.094;4.870;2023-05-07T08:29:22;27.58;;;22.67;;
51495;SDS011;37572;52.094;4.870;2023-05-07T08:31:48;25.33;;;18.47;;
51495;SDS011;37572;52.094;4.870;2023-05-07T08:34:13;26.35;;;21.05;;
51495;SDS011;37572;52.094;4.870;2023-05-07T08:36:38;24.40;;;18.25;;
51495;SDS011;37572;52.094;4.870;2023-05-07T08:39:06;23.70;;;18.73;;
51495;SDS011;37572;52.094;4.870;2023-05-07T08:41:32;21.13;;;15.60;;
51495;SDS011;37572;52.094;4.870;2023-05-07T08:43:58;22.10;;;17.40;;
51495;SDS011;37572;52.094;4.870;2023-05-07T08:46:25;22.52;;;17.30;;
51495;SDS011;37572;52.094;4.870;2023-05-07T08:48:50;20.75;;;16.45;;
51495;SDS011;37572;52.094;4.870;2023-05-07T08:51:19;20.58;;;16.63;;
51495;SDS011;37572;52.094;4.870;2023-05-07T08:53:46;18.90;;;14.65;;
51495;SDS011;37572;52.094;4.870;2023-05-07T08:56:16;19.40;;;15.48;;
51495;SDS011;37572;52.094;4.870;2023-05-07T08:58:42;18.35;;;14.13;;
51495;SDS011;37572;52.094;4.870;2023-05-07T09:01:14;17.25;;;13.52;;
51495;SDS011;37572;52.094;4.870;2023-05-07T09:03:41;18.13;;;12.65;;
51495;SDS011;37572;52.094;4.870;2023-05-07T09:06:10;14.13;;;11.43;;
51495;SDS011;37572;52.094;4.870;2023-05-07T09:08:35;16.20;;;12.17;;
51495;SDS011;37572;52.094;4.870;2023-05-07T09:11:01;15.20;;;13.23;;
51495;SDS011;37572;52.094;4.870;2023-05-07T09:13:27;15.10;;;12.77;;
51495;SDS011;37572;52.094;4.870;2023-05-07T09:15:52;14.93;;;12.18;;
51495;SDS011;37572;52.094;4.870;2023-05-07T09:18:17;13.83;;;11.60;;
51495;SDS011;37572;52.094;4.870;2023-05-07T09:20:43;13.50;;;11.50;;
51495;SDS011;37572;52.094;4.870;2023-05-07T09:23:08;16.98;;;13.20;;
51495;SDS011;37572;52.094;4.870;2023-05-07T09:25:34;14.75;;;11.82;;
51495;SDS011;37572;52.094;4.870;2023-05-07T09:28:01;15.90;;;10.82;;
51495;SDS011;37572;52.094;4.870;2023-05-07T09:30:27;11.98;;;9.45;;
51495;SDS011;37572;52.094;4.870;2023-05-07T09:32:57;12.27;;;10.38;;
51495;SDS011;37572;52.094;4.870;2023-05-07T09:35:24;13.30;;;10.45;;
51495;SDS011;37572;52.094;4.870;2023-05-07T09:37:55;11.70;;;10.13;;
51495;SDS011;37572;52.094;4.870;2023-05-07T09:40:21;11.73;;;9.40;;
51495;SDS011;37572;52.094;4.870;2023-05-07T09:42:48;10.93;;;8.00;;
51495;SDS011;37572;52.094;4.870;2023-05-07T09:45:14;13.77;;;10.57;;
51495;SDS011;37572;52.094;4.870;2023-05-07T09:47:40;13.80;;;10.13;;
51495;SDS011;37572;52.094;4.870;2023-05-07T09:50:09;12.88;;;9.73;;
51495;SDS011;37572;52.094;4.870;2023-05-07T09:52:38;12.57;;;9.68;;
51495;SDS011;37572;52.094;4.870;2023-05-07T09:55:05;13.93;;;10.30;;
51495;SDS011;37572;52.094;4.870;2023-05-07T09:57:32;15.90;;;10.18;;
51495;SDS011;37572;52.094;4.870;2023-05-07T09:59:58;12.15;;;10.15;;
51495;SDS011;37572;52.094;4.870;2023-05-07T10:02:27;10.82;;;9.00;;
51495;SDS011;37572;52.094;4.870;2023-05-07T10:04:55;15.18;;;10.70;;
51495;SDS011;37572;52.094;4.870;2023-05-07T10:07:21;13.52;;;10.90;;
51495;SDS011;37572;52.094;4.870;2023-05-07T10:09:47;12.90;;;10.15;;
51495;SDS011;37572;52.094;4.870;2023-05-07T10:12:13;12.27;;;10.10;;
51495;SDS011;37572;52.094;4.870;2023-05-07T10:14:39;13.35;;;9.60;;
51495;SDS011;37572;52.094;4.870;2023-05-07T10:17:05;13.60;;;10.65;;
51495;SDS011;37572;52.094;4.870;2023-05-07T10:19:30;14.95;;;10.98;;
51495;SDS011;37572;52.094;4.870;2023-05-07T10:21:59;13.98;;;10.73;;
51495;SDS011;37572;52.094;4.870;2023-05-07T10:24:31;14.52;;;9.98;;
51495;SDS011;37572;52.094;4.870;2023-05-07T10:26:59;13.10;;;10.88;;
51495;SDS011;37572;52.094;4.870;2023-05-07T10:34:42;14.15;;;11.48;;
51495;SDS011;37572;52.094;4.870;2023-05-07T10:37:10;15.35;;;9.95;;
51495;SDS011;37572;52.094;4.870;2023-05-07T10:39:37;12.73;;;10.27;;
51495;SDS011;37572;52.094;4.870;2023-05-07T10:42:12;14.88;;;10.18;;
51495;SDS011;37572;52.094;4.870;2023-05-07T10:44:38;13.75;;;10.18;;
51495;SDS011;37572;52.094;4.870;2023-05-07T10:47:05;13.77;;;10.55;;
51495;SDS011;37572;52.094;4.870;2023-05-07T10:49:30;11.35;;;10.20;;
51495;SDS011;37572;52.094;4.870;2023-05-07T10:54:40;11.93;;;8.95;;
51495;SDS011;37572;52.094;4.870;2023-05-07T10:59:56;11.88;;;9.25;;
51495;SDS011;37572;52.094;4.870;2023-05-07T11:02:22;12.35;;;7.38;;
51495;SDS011;37572;52.094;4.870;2023-05-07T11:07:53;10.52;;;6.90;;
51495;SDS011;37572;52.094;4.870;2023-05-07T11:12:49;9.20;;;6.43;;
51495;SDS011;37572;52.094;4.870;2023-05-07T11:15:15;10.40;;;6.75;;
51495;SDS011;37572;52.094;4.870;2023-05-07T11:17:59;9.77;;;7.32;;
51495;SDS011;37572;52.094;4.870;2023-05-07T11:20:44;9.40;;;7.55;;
51495;SDS011;37572;52.094;4.870;2023-05-07T11:25:59;9.65;;;7.97;;
51495;SDS011;37572;52.094;4.870;2023-05-07T11:28:26;10.48;;;7.43;;
51495;SDS011;37572;52.094;4.870;2023-05-07T11:30:53;11.10;;;7.80;;
51495;SDS011;37572;52.094;4.870;2023-05-07T11:33:18;10.90;;;7.82;;
51495;SDS011;37572;52.094;4.870;2023-05-07T11:35:44;12.07;;;8.07;;
51495;SDS011;37572;52.094;4.870;2023-05-07T11:38:10;10.57;;;7.38;;
51495;SDS011;37572;52.094;4.870;2023-05-07T11:40:48;10.52;;;7.07;;
51495;SDS011;37572;52.094;4.870;2023-05-07T11:43:25;8.80;;;6.50;;
51495;SDS011;37572;52.094;4.870;2023-05-07T11:45:51;8.65;;;6.15;;
51495;SDS011;37572;52.094;4.870;2023-05-07T11:48:16;10.13;;;5.78;;
51495;SDS011;37572;52.094;4.870;2023-05-07T11:50:59;8.43;;;6.45;;
51495;SDS011;37572;52.094;4.870;2023-05-07T11:53:27;10.75;;;6.35;;
51495;SDS011;37572;52.094;4.870;2023-05-07T11:55:59;6.13;;;5.10;;
51495;SDS011;37572;52.094;4.870;2023-05-07T11:58:25;7.88;;;5.68;;
51495;SDS011;37572;52.094;4.870;2023-05-07T12:00:51;9.65;;;6.22;;
51495;SDS011;37572;52.094;4.870;2023-05-07T12:03:17;9.35;;;6.53;;
51495;SDS011;37572;52.094;4.870;2023-05-07T12:05:45;9.27;;;7.13;;
51495;SDS011;37572;52.094;4.870;2023-05-07T12:08:20;8.80;;;6.68;;
51495;SDS011;37572;52.094;4.870;2023-05-07T12:10:48;9.25;;;6.30;;
51495;SDS011;37572;52.094;4.870;2023-05-07T12:13:18;10.68;;;7.70;;
51495;SDS011;37572;52.094;4.870;2023-05-07T12:15:51;8.98;;;5.43;;
51495;SDS011;37572;52.094;4.870;2023-05-07T12:18:16;9.63;;;5.53;;
51495;SDS011;37572;52.094;4.870;2023-05-07T12:20:42;9.63;;;5.47;;
51495;SDS011;37572;52.094;4.870;2023-05-07T12:23:08;8.23;;;4.70;;
51495;SDS011;37572;52.094;4.870;2023-05-07T12:25:34;9.30;;;5.70;;
51495;SDS011;37572;52.094;4.870;2023-05-07T12:28:04;8.57;;;6.13;;
51495;SDS011;37572;52.094;4.870;2023-05-07T12:30:39;9.27;;;5.60;;
51495;SDS011;37572;52.094;4.870;2023-05-07T12:33:05;8.60;;;6.53;;
51495;SDS011;37572;52.094;4.870;2023-05-07T12:35:31;12.25;;;7.82;;
51495;SDS011;37572;52.094;4.870;2023-05-07T12:38:00;9.75;;;8.75;;
51495;SDS011;37572;52.094;4.870;2023-05-07T12:40:38;11.95;;;9.77;;
51495;SDS011;37572;52.094;4.870;2023-05-07T12:43:05;10.70;;;8.93;;
51495;SDS011;37572;52.094;4.870;2023-05-07T12:45:30;8.65;;;6.85;;
51495;SDS011;37572;52.094;4.870;2023-05-07T12:48:00;9.45;;;7.05;;
51495;SDS011;37572;52.094;4.870;2023-05-07T12:50:30;8.30;;;6.70;;
51495;SDS011;37572;52.094;4.870;2023-05-07T12:52:57;8.75;;;6.90;;
51495;SDS011;37572;52.094;4.870;2023-05-07T12:55:22;10.60;;;8.02;;
51495;SDS011;37572;52.094;4.870;2023-05-07T12:57:48;10.60;;;8.67;;
51495;SDS011;37572;52.094;4.870;2023-05-07T13:00:15;9.20;;;8.18;;
51495;SDS011;37572;52.094;4.870;2023-05-07T13:02:42;11.75;;;7.93;;
51495;SDS011;37572;52.094;4.870;2023-05-07T13:05:10;9.45;;;7.88;;
51495;SDS011;37572;52.094;4.870;2023-05-07T13:07:36;10.20;;;9.10;;
51495;SDS011;37572;52.094;4.870;2023-05-07T13:10:02;11.23;;;9.57;;
51495;SDS011;37572;52.094;4.870;2023-05-07T13:12:28;11.40;;;8.95;;
51495;SDS011;37572;52.094;4.870;2023-05-07T13:14:53;10.63;;;9.13;;
51495;SDS011;37572;52.094;4.870;2023-05-07T13:17:18;11.43;;;9.20;;
51495;SDS011;37572;52.094;4.870;2023-05-07T13:19:44;10.30;;;8.43;;
51495;SDS011;37572;52.094;4.870;2023-05-07T13:22:09;11.83;;;9.20;;
51495;SDS011;37572;52.094;4.870;2023-05-07T13:24:34;9.48;;;7.60;;
51495;SDS011;37572;52.094;4.870;2023-05-07T13:27:00;13.88;;;10.07;;
51495;SDS011;37572;52.094;4.870;2023-05-07T13:29:25;12.80;;;10.50;;
51495;SDS011;37572;52.094;4.870;2023-05-07T13:31:55;8.82;;;7.43;;
51495;SDS011;37572;52.094;4.870;2023-05-07T13:34:21;10.20;;;7.55;;
51495;SDS011;37572;52.094;4.870;2023-05-07T13:36:46;11.38;;;10.20;;
51495;SDS011;37572;52.094;4.870;2023-05-07T13:39:12;10.77;;;9.00;;
51495;SDS011;37572;52.094;4.870;2023-05-07T13:41:37;9.02;;;7.53;;
51495;SDS011;37572;52.094;4.870;2023-05-07T13:44:02;10.50;;;7.93;;
51495;SDS011;37572;52.094;4.870;2023-05-07T13:46:28;11.27;;;9.77;;
51495;SDS011;37572;52.094;4.870;2023-05-07T13:48:54;13.10;;;11.80;;
51495;SDS011;37572;52.094;4.870;2023-05-07T13:51:20;14.57;;;11.98;;
51495;SDS011;37572;52.094;4.870;2023-05-07T13:53:46;15.73;;;13.48;;
51495;SDS011;37572;52.094;4.870;2023-05-07T13:56:12;15.68;;;13.57;;
51495;SDS011;37572;52.094;4.870;2023-05-07T13:58:37;19.42;;;15.93;;
51495;SDS011;37572;52.094;4.870;2023-05-07T14:01:02;19.20;;;16.77;;
51495;SDS011;37572;52.094;4.870;2023-05-07T14:03:28;18.35;;;14.65;;
51495;SDS011;37572;52.094;4.870;2023-05-07T14:05:53;18.90;;;14.30;;
51495;SDS011;37572;52.094;4.870;2023-05-07T14:08:18;21.52;;;14.88;;
51495;SDS011;37572;52.094;4.870;2023-05-07T14:10:45;19.17;;;13.55;;
51495;SDS011;37572;52.094;4.870;2023-05-07T14:13:11;17.67;;;12.55;;
51495;SDS011;37572;52.094;4.870;2023-05-07T14:15:36;12.90;;;8.30;;
51495;SDS011;37572;52.094;4.870;2023-05-07T14:18:02;15.18;;;12.27;;
51495;SDS011;37572;52.094;4.870;2023-05-07T14:20:28;16.42;;;11.95;;
51495;SDS011;37572;52.094;4.870;2023-05-07T14:22:55;10.75;;;8.35;;
51495;SDS011;37572;52.094;4.870;2023-05-07T14:25:21;10.95;;;8.15;;
51495;SDS011;37572;52.094;4.870;2023-05-07T14:27:46;8.03;;;6.57;;
51495;SDS011;37572;52.094;4.870;2023-05-07T14:30:11;12.47;;;9.90;;
51495;SDS011;37572;52.094;4.870;2023-05-07T14:32:37;10.55;;;8.20;;
51495;SDS011;37572;52.094;4.870;2023-05-07T14:35:02;12.33;;;9.10;;
51495;SDS011;37572;52.094;4.870;2023-05-07T14:37:28;11.60;;;9.75;;
51495;SDS011;37572;52.094;4.870;2023-05-07T14:39:53;10.55;;;8.40;;